Fredonia, Iowa
Current Conditions -  °F | °C
As of 1:35 AM on Monday 22 Dec 2014 (Local Time) from KAWG Reporting Station
Overcast Overcast  
Wind Chill: -1°   Ceiling: 4600
Heat Index:   Visibility: 8mi
Dew Point:   Wind: 13mph
Humidity: 100%   Direction: 160°SSE
Pressure: 29.83"   Gusts: NA
Location:  41.2636°N, 91.4145°W
Report Text: KAWG 220735Z AUTO 16011KT 8SM OVC046 03/03 A2983 RMK AO2
Loading
Personal Weather Stations






























Interactive Weather Map New forecast layout! Learn more

10-Day Weather Forecast

Advertisements
Track Severe Weather on mobile